createdAt,value
2019-04-01T02:50:09.544Z,32.20
2019-04-01T02:52:40.261Z,32.40
2019-04-01T02:55:10.951Z,32.40
2019-04-01T02:57:42.002Z,32.50
2019-04-01T03:00:12.779Z,32.60
2019-04-01T03:02:43.547Z,32.70
2019-04-01T03:05:14.735Z,32.80
2019-04-01T03:07:45.700Z,32.80
2019-04-01T03:10:16.619Z,32.90
2019-04-01T03:12:47.598Z,32.90
2019-04-01T03:15:18.400Z,33.10
2019-04-01T03:17:50.405Z,33.10
2019-04-01T03:20:21.182Z,33.20
2019-04-01T03:22:52.222Z,33.40
2019-04-01T03:25:22.993Z,33.60
2019-04-01T03:27:55.191Z,33.60
2019-04-01T03:30:25.703Z,33.70
2019-04-01T03:32:56.455Z,33.70
2019-04-01T03:35:27.613Z,33.70
2019-04-01T03:37:58.208Z,33.80
2019-04-01T03:40:28.785Z,33.80
2019-04-01T03:42:59.811Z,33.90
2019-04-01T03:45:30.547Z,34.10
2019-04-01T03:48:01.438Z,34.20
2019-04-01T03:50:32.551Z,34.30
2019-04-01T03:53:03.205Z,34.50
2019-04-01T03:55:33.942Z,34.60
2019-04-01T03:58:04.752Z,34.70
2019-04-01T04:00:35.284Z,34.80
2019-04-01T04:03:06.258Z,34.80
2019-04-01T04:05:37.544Z,34.90
2019-04-01T04:08:08.055Z,34.90
2019-04-01T04:10:38.670Z,35.00
2019-04-01T04:13:09.732Z,35.00
2019-04-01T04:15:40.497Z,35.10
2019-04-01T04:18:11.070Z,35.20
2019-04-01T04:20:42.108Z,35.30
2019-04-01T04:23:12.681Z,35.40
2019-04-01T04:25:43.627Z,35.60
2019-04-01T04:28:14.696Z,35.70
2019-04-01T04:30:45.189Z,35.70
2019-04-01T04:33:16.020Z,35.80
2019-04-01T04:35:46.901Z,35.80
2019-04-01T04:38:17.283Z,36.00
2019-04-01T04:40:47.713Z,36.00
2019-04-01T04:43:18.613Z,36.20
2019-04-01T04:45:49.120Z,36.20
2019-04-01T04:48:19.907Z,36.30
2019-04-01T04:50:50.840Z,36.20
2019-04-01T04:53:21.629Z,36.20
2019-04-01T04:55:52.256Z,36.10
2019-04-01T04:58:23.196Z,36.10
2019-04-01T05:00:53.962Z,36.10
2019-04-01T05:03:24.699Z,36.10
2019-04-01T05:05:55.860Z,36.10
2019-04-01T05:08:26.586Z,36.00
2019-04-01T05:10:57.182Z,35.90
2019-04-01T05:13:28.011Z,35.90
2019-04-01T05:15:58.758Z,35.80
2019-04-01T05:18:29.441Z,35.80
2019-04-01T05:21:01.554Z,35.80
2019-04-01T05:23:32.327Z,35.80
2019-04-01T05:26:02.997Z,35.70
2019-04-01T05:28:34.784Z,35.70
2019-04-01T05:31:05.218Z,35.80
2019-04-01T05:33:36.077Z,36.00
2019-04-01T05:36:06.936Z,36.00
2019-04-01T05:38:37.559Z,36.00
2019-04-01T05:41:08.291Z,36.00
2019-04-01T05:43:39.180Z,36.00
2019-04-01T05:46:10.025Z,36.00
2019-04-01T05:48:40.651Z,36.00
2019-04-01T05:51:11.508Z,36.10
2019-04-01T05:53:42.156Z,36.10
2019-04-01T05:56:13.270Z,36.10
2019-04-01T05:58:44.323Z,36.10
2019-04-01T06:01:16.410Z,36.10
2019-04-01T06:03:46.868Z,36.10
2019-04-01T06:06:17.704Z,36.20
2019-04-01T06:08:48.303Z,36.30
2019-04-01T06:11:18.763Z,36.30
2019-04-01T06:13:49.794Z,36.40
2019-04-01T06:16:20.426Z,36.40
2019-04-01T06:18:51.002Z,36.50
2019-04-01T06:21:23.519Z,36.50
2019-04-01T06:23:54.042Z,36.50
2019-04-01T06:26:24.724Z,36.50
2019-04-01T06:28:55.504Z,36.50
2019-04-01T06:31:26.113Z,36.50
2019-04-01T06:33:56.767Z,36.50
2019-04-01T06:36:27.497Z,36.50
2019-04-01T06:38:58.143Z,36.50
2019-04-01T06:41:28.873Z,36.40
2019-04-01T06:44:02.579Z,36.30
2019-04-01T06:46:33.392Z,36.20
2019-04-01T06:49:04.270Z,36.10
2019-04-01T06:51:34.981Z,36.00
2019-04-01T06:54:06.000Z,36.00
2019-04-01T06:56:36.795Z,35.90
2019-04-01T06:59:07.563Z,35.90
2019-04-01T07:01:38.967Z,35.90
2019-04-01T07:04:09.725Z,35.90
2019-04-01T07:06:40.345Z,36.00
2019-04-01T07:09:11.342Z,36.00
2019-04-01T07:11:42.375Z,36.10
2019-04-01T07:14:13.271Z,36.20
2019-04-01T07:16:44.057Z,36.20
2019-04-01T07:19:14.997Z,36.40
2019-04-01T07:21:45.762Z,36.30
2019-04-01T07:24:16.836Z,36.40
2019-04-01T07:26:47.585Z,36.40
2019-04-01T07:29:18.630Z,36.40
2019-04-01T07:31:49.677Z,36.40
2019-04-01T07:34:20.551Z,36.40
2019-04-01T07:36:51.122Z,36.40
2019-04-01T07:39:21.993Z,36.50
2019-04-01T07:41:52.825Z,36.60
2019-04-01T07:44:23.480Z,36.60
2019-04-01T07:46:54.527Z,36.60
2019-04-01T07:49:25.271Z,36.70
2019-04-01T07:51:56.018Z,36.80
2019-04-01T07:54:26.964Z,36.80
2019-04-01T07:56:57.678Z,36.80
2019-04-01T07:59:28.427Z,36.90
2019-04-01T08:01:59.660Z,36.90
2019-04-01T08:04:30.337Z,37.00
2019-04-01T08:07:01.194Z,37.00
2019-04-01T08:09:32.163Z,37.00
2019-04-01T08:12:02.910Z,37.00
2019-04-01T08:14:37.428Z,37.10
2019-04-01T08:17:08.220Z,37.10
2019-04-01T08:19:38.903Z,37.10
2019-04-01T08:22:09.840Z,37.00
2019-04-01T08:24:40.623Z,37.00
2019-04-01T08:27:11.263Z,37.00
2019-04-01T08:29:42.171Z,36.90
2019-04-01T08:32:14.020Z,36.80
2019-04-01T08:34:44.831Z,36.80
2019-04-01T08:37:15.636Z,36.80
2019-04-01T08:39:53.043Z,36.90
2019-04-01T08:42:23.806Z,36.90
2019-04-01T08:44:54.453Z,37.00
2019-04-01T08:47:25.251Z,37.00
2019-04-01T08:49:56.043Z,37.00
2019-04-01T08:52:27.468Z,37.10
2019-04-01T08:54:57.968Z,37.20
2019-04-01T08:57:29.160Z,37.10
2019-04-01T09:00:00.601Z,37.10
2019-04-01T09:02:31.266Z,37.00
2019-04-01T09:05:02.375Z,37.00
2019-04-01T09:07:33.221Z,37.00
2019-04-01T09:10:03.986Z,37.00
2019-04-01T09:12:34.970Z,36.90
2019-04-01T09:15:05.789Z,36.90
2019-04-01T09:17:39.923Z,36.90
2019-04-01T09:20:08.718Z,36.80
2019-04-01T09:22:39.446Z,36.80
2019-04-01T09:25:09.952Z,36.80
2019-04-01T09:27:40.842Z,36.80
2019-04-01T09:30:11.492Z,36.70
2019-04-01T09:32:42.282Z,36.70
2019-04-01T09:35:13.155Z,36.60
2019-04-01T09:37:43.800Z,36.60
2019-04-01T09:40:15.375Z,36.60
2019-04-01T09:42:46.381Z,36.50
2019-04-01T09:45:17.261Z,36.50
2019-04-01T09:47:48.854Z,36.40
2019-04-01T09:50:20.481Z,36.40
2019-04-01T09:52:50.879Z,36.30
2019-04-01T09:55:21.951Z,36.20
2019-04-01T09:57:53.283Z,36.20
2019-04-01T10:00:24.436Z,36.10
2019-04-01T10:02:55.976Z,36.00
2019-04-01T10:05:26.830Z,35.90
2019-04-01T10:07:57.517Z,35.90
2019-04-01T10:10:28.371Z,35.80
2019-04-01T10:12:59.268Z,35.80
2019-04-01T10:15:29.839Z,35.70
2019-04-01T10:18:00.315Z,35.70
2019-04-01T10:20:31.313Z,35.70
2019-04-01T10:23:02.181Z,35.60
2019-04-01T10:25:33.032Z,35.50
2019-04-01T10:28:04.322Z,35.60
2019-04-01T10:30:36.931Z,35.50
2019-04-01T10:33:07.812Z,35.50
2019-04-01T10:35:38.758Z,35.40
2019-04-01T10:38:09.731Z,35.40
2019-04-01T10:40:40.282Z,35.30
2019-04-01T10:43:11.257Z,35.30
2019-04-01T10:45:42.040Z,35.20
2019-04-01T10:48:12.759Z,35.10
2019-04-01T10:50:43.656Z,35.00
2019-04-01T10:53:14.698Z,35.00
2019-04-01T10:55:45.639Z,34.90
2019-04-01T10:58:16.464Z,34.90
2019-04-01T11:00:48.094Z,34.70
2019-04-01T11:03:19.536Z,34.70
2019-04-01T11:05:51.009Z,34.60
2019-04-01T11:08:21.722Z,34.60
2019-04-01T11:10:52.947Z,34.50
2019-04-01T11:13:24.307Z,34.40
2019-04-01T11:15:54.951Z,34.30
2019-04-01T11:18:26.140Z,34.30
2019-04-01T11:20:57.183Z,34.20
2019-04-01T11:23:28.172Z,34.20
2019-04-01T11:25:59.398Z,34.10
2019-04-01T11:28:30.837Z,34.00
2019-04-01T11:31:01.734Z,33.90
2019-04-01T11:33:32.539Z,33.90
2019-04-01T11:36:05.146Z,33.80
2019-04-01T11:38:36.491Z,33.80
2019-04-01T11:41:07.273Z,33.70
2019-04-01T11:43:38.474Z,33.70
2019-04-01T11:46:12.322Z,33.60
2019-04-01T11:48:41.791Z,33.50
2019-04-01T11:51:12.407Z,33.40
2019-04-01T11:53:43.671Z,33.30
2019-04-01T11:56:14.708Z,33.30
2019-04-01T11:58:46.366Z,33.20
2019-04-01T12:01:17.214Z,33.10
2019-04-01T12:03:47.996Z,33.10
2019-04-01T12:06:18.424Z,33.00
2019-04-01T12:08:49.160Z,33.00
2019-04-01T12:11:20.226Z,33.00
2019-04-01T12:13:50.786Z,33.00
2019-04-01T12:16:21.301Z,33.00
2019-04-01T12:18:52.169Z,32.90
2019-04-01T12:21:23.640Z,32.90
2019-04-01T12:23:54.460Z,32.80
2019-04-01T12:26:25.693Z,32.80
2019-04-01T12:28:56.546Z,32.80
2019-04-01T12:31:27.147Z,32.80
2019-04-01T12:33:58.203Z,32.80
2019-04-01T12:36:28.906Z,32.70
2019-04-01T12:38:59.472Z,32.70
2019-04-01T12:41:30.561Z,32.70
2019-04-01T12:44:01.146Z,32.60
2019-04-01T12:46:31.723Z,32.60
2019-04-01T12:49:02.785Z,32.50
2019-04-01T12:51:33.592Z,32.40
2019-04-01T12:54:04.531Z,32.40
2019-04-01T12:56:35.758Z,32.30
2019-04-01T12:59:07.645Z,32.20
2019-04-01T13:01:38.282Z,32.10
2019-04-01T13:04:09.747Z,32.00
2019-04-01T13:06:40.464Z,32.00
2019-04-01T13:09:11.099Z,31.90
2019-04-01T13:11:44.876Z,31.80
2019-04-01T13:14:16.268Z,31.80
2019-04-01T13:16:47.087Z,31.70
2019-04-01T13:19:17.863Z,31.60
2019-04-01T13:21:48.485Z,31.50
2019-04-01T13:24:19.530Z,31.40
2019-04-01T13:26:51.130Z,31.40
2019-04-01T13:29:21.800Z,31.40
2019-04-01T13:31:52.698Z,31.30
